Rawlins, WY (82301)

5:52 PM MDT on September 02, 2015 (GMT -0600)
Highland Towne | | Change Station
CLOSE
Current Station
Personal Weather Station
Location: Rawlins, WY
Elevation: 6831 ft
Nearby Weather Stations
Active Advisory: Fire Weather Advisory

Elev 6831 ft 41.82 °N, 107.22 °W | Updated 6 seconds ago

Partly Cloudy
Partly Cloudy
82.0 °F
Feels Like 80 °F
N
5.3
Wind Variable Wind from NNW

Today
High -- | Low -- °F
--% Chance of Precip.
Yesterday
High -- | Low -- °F
Precip. -- in
6:35 AM 7:40 PM
Waning Gibbous, 76% visible
Pressure 29.78 in
Visibility 10.0 miles
Clouds Few 9500 ft
Heat Index 80 °F
Dew Point 38 °F
Humidity 21%
Rainfall 0.00 in
Snow Depth Not available.
UV 3 out of 12
Pollen 10.10 out of 12
Air Quality Not available.
Flu Activity Not available.
METAR KRWL 022253Z AUTO 22016G22KT 10SM FEW095 28/03 A3010 RMK AO2 PK WND 20027/2155 SLP083 T02780028
Pressure 29.78 in
Visibility 10.0 miles
Clouds Few 9500 ft
Heat Index 80 °F
Dew Point 38 °F
Humidity 21%
Rainfall 0.00 in
Snow Depth Not available.
UV 3 out of 12
Pollen 10.10 out of 12
Air Quality Not available.
Flu Activity Not available.
METAR KRWL 022253Z AUTO 22016G22KT 10SM FEW095 28/03 A3010 RMK AO2 PK WND 20027/2155 SLP083 T02780028

10-Day Weather Forecast

×

Almanac

Astronomy

Sep. 02, 2015 Rise Set
Actual Time
Civil Twilight
Nautical Twilight
Astronomical Twilight
Moon
Length of Visible Light
Length of Day
Tomorrow will be .
, % of the Moon is Illuminated

Today's Extremes

State Highs State Lows

Community

WunderPhotos

Upload Photos

1,851,841 photos uploaded!

WunderBlogs® & News

Nearby

Air Quality

  Air Quality AQ Index Pollutant
Not available.

Snow Depth

Station Depth Elevation

Earthquake Activity

City Distance Mag. Time & Date
Minimum magnitude displayed is 2.5.

Coastal Water Temperatures

Place Temperature

Stations

Nearby Weather Stations

Station Location Temp. Windchill Dew Point Humidity Wind Precip. Elev Updated Type
                   
Fire Weather Advisory
Statement as of 5:51 PM MDT on September 02, 2015

... Red flag warning is cancelled for gusty winds and low
humidities for fire weather zones 301... 302... 303... 304... 306 and
308...

The National Weather Service in Cheyenne has cancelled the red
flag warning.

Winds have eased early this evening and humidities are on the rise
with low level moisture moving in from the southwest.
Therefore... the red flag warnings have been cancelled early.